sensor_id;sensor_type;location;lat;lon;timestamp;P1;durP1;ratioP1;P2;durP2;ratioP2
39750;SDS011;37579;51.074;17.004;2023-08-21T00:02:24;1.95;;;1.85;;
39750;SDS011;37579;51.074;17.004;2023-08-21T00:04:53;1.60;;;1.50;;
39750;SDS011;37579;51.074;17.004;2023-08-21T00:07:19;1.70;;;1.60;;
39750;SDS011;37579;51.074;17.004;2023-08-21T00:09:44;1.88;;;1.67;;
39750;SDS011;37579;51.074;17.004;2023-08-21T00:12:10;1.58;;;1.48;;
39750;SDS011;37579;51.074;17.004;2023-08-21T00:14:36;1.63;;;1.52;;
39750;SDS011;37579;51.074;17.004;2023-08-21T00:17:02;1.65;;;1.55;;
39750;SDS011;37579;51.074;17.004;2023-08-21T00:19:28;1.73;;;1.63;;
39750;SDS011;37579;51.074;17.004;2023-08-21T00:21:55;1.55;;;1.45;;
39750;SDS011;37579;51.074;17.004;2023-08-21T00:24:20;1.45;;;1.35;;
39750;SDS011;37579;51.074;17.004;2023-08-21T00:26:46;1.77;;;1.67;;
39750;SDS011;37579;51.074;17.004;2023-08-21T00:29:12;1.50;;;1.40;;
39750;SDS011;37579;51.074;17.004;2023-08-21T00:31:38;1.75;;;1.65;;
39750;SDS011;37579;51.074;17.004;2023-08-21T00:34:03;1.65;;;1.55;;
39750;SDS011;37579;51.074;17.004;2023-08-21T00:36:29;1.50;;;1.40;;
39750;SDS011;37579;51.074;17.004;2023-08-21T00:38:55;1.73;;;1.63;;
39750;SDS011;37579;51.074;17.004;2023-08-21T00:41:21;1.70;;;1.60;;
39750;SDS011;37579;51.074;17.004;2023-08-21T00:43:46;1.67;;;1.58;;
39750;SDS011;37579;51.074;17.004;2023-08-21T00:46:13;1.70;;;1.60;;
39750;SDS011;37579;51.074;17.004;2023-08-21T00:48:39;1.67;;;1.58;;
39750;SDS011;37579;51.074;17.004;2023-08-21T00:51:05;1.70;;;1.60;;
39750;SDS011;37579;51.074;17.004;2023-08-21T00:53:32;1.70;;;1.60;;
39750;SDS011;37579;51.074;17.004;2023-08-21T00:55:58;1.75;;;1.65;;
39750;SDS011;37579;51.074;17.004;2023-08-21T00:58:24;1.60;;;1.50;;
39750;SDS011;37579;51.074;17.004;2023-08-21T01:00:50;1.95;;;1.77;;
39750;SDS011;37579;51.074;17.004;2023-08-21T01:03:18;1.83;;;1.73;;
39750;SDS011;37579;51.074;17.004;2023-08-21T01:05:44;1.70;;;1.60;;
39750;SDS011;37579;51.074;17.004;2023-08-21T01:08:12;1.75;;;1.65;;
39750;SDS011;37579;51.074;17.004;2023-08-21T01:10:53;1.73;;;1.63;;
39750;SDS011;37579;51.074;17.004;2023-08-21T01:13:59;1.80;;;1.70;;
39750;SDS011;37579;51.074;17.004;2023-08-21T01:16:36;1.70;;;1.60;;
39750;SDS011;37579;51.074;17.004;2023-08-21T01:19:04;1.52;;;1.42;;
39750;SDS011;37579;51.074;17.004;2023-08-21T01:21:35;1.58;;;1.48;;
39750;SDS011;37579;51.074;17.004;2023-08-21T01:24:01;1.70;;;1.60;;
39750;SDS011;37579;51.074;17.004;2023-08-21T01:26:26;1.75;;;1.65;;
39750;SDS011;37579;51.074;17.004;2023-08-21T01:28:52;1.70;;;1.60;;
39750;SDS011;37579;51.074;17.004;2023-08-21T01:31:23;1.60;;;1.50;;
39750;SDS011;37579;51.074;17.004;2023-08-21T01:33:57;1.48;;;1.38;;
39750;SDS011;37579;51.074;17.004;2023-08-21T01:36:25;1.88;;;1.77;;
39750;SDS011;37579;51.074;17.004;2023-08-21T01:38:52;1.77;;;1.67;;
39750;SDS011;37579;51.074;17.004;2023-08-21T01:41:18;1.80;;;1.70;;
39750;SDS011;37579;51.074;17.004;2023-08-21T01:43:44;1.90;;;1.80;;
39750;SDS011;37579;51.074;17.004;2023-08-21T01:46:09;1.65;;;1.55;;
39750;SDS011;37579;51.074;17.004;2023-08-21T01:48:36;1.40;;;1.30;;
39750;SDS011;37579;51.074;17.004;2023-08-21T01:51:02;1.60;;;1.50;;
39750;SDS011;37579;51.074;17.004;2023-08-21T01:53:28;1.63;;;1.52;;
39750;SDS011;37579;51.074;17.004;2023-08-21T01:55:53;1.88;;;1.77;;
39750;SDS011;37579;51.074;17.004;2023-08-21T01:58:19;1.80;;;1.70;;
39750;SDS011;37579;51.074;17.004;2023-08-21T02:00:46;1.80;;;1.70;;
39750;SDS011;37579;51.074;17.004;2023-08-21T02:03:12;1.70;;;1.60;;
39750;SDS011;37579;51.074;17.004;2023-08-21T02:05:38;1.70;;;1.60;;
39750;SDS011;37579;51.074;17.004;2023-08-21T02:08:09;1.60;;;1.50;;
39750;SDS011;37579;51.074;17.004;2023-08-21T02:10:37;1.67;;;1.58;;
39750;SDS011;37579;51.074;17.004;2023-08-21T02:13:03;1.45;;;1.35;;
39750;SDS011;37579;51.074;17.004;2023-08-21T02:15:29;1.63;;;1.52;;
39750;SDS011;37579;51.074;17.004;2023-08-21T02:17:54;1.70;;;1.60;;
39750;SDS011;37579;51.074;17.004;2023-08-21T02:20:20;1.33;;;1.23;;
39750;SDS011;37579;51.074;17.004;2023-08-21T02:22:46;1.65;;;1.55;;
39750;SDS011;37579;51.074;17.004;2023-08-21T02:25:12;1.80;;;1.70;;
39750;SDS011;37579;51.074;17.004;2023-08-21T02:27:38;1.58;;;1.48;;
39750;SDS011;37579;51.074;17.004;2023-08-21T02:30:04;1.48;;;1.38;;
39750;SDS011;37579;51.074;17.004;2023-08-21T02:32:30;1.65;;;1.55;;
39750;SDS011;37579;51.074;17.004;2023-08-21T02:34:55;1.88;;;1.77;;
39750;SDS011;37579;51.074;17.004;2023-08-21T02:37:21;1.77;;;1.67;;
39750;SDS011;37579;51.074;17.004;2023-08-21T02:39:47;2.00;;;1.90;;
39750;SDS011;37579;51.074;17.004;2023-08-21T02:42:13;1.92;;;1.83;;
39750;SDS011;37579;51.074;17.004;2023-08-21T02:44:39;1.60;;;1.50;;
39750;SDS011;37579;51.074;17.004;2023-08-21T02:47:04;1.60;;;1.50;;
39750;SDS011;37579;51.074;17.004;2023-08-21T02:49:30;1.73;;;1.63;;
39750;SDS011;37579;51.074;17.004;2023-08-21T02:51:56;1.50;;;1.40;;
39750;SDS011;37579;51.074;17.004;2023-08-21T02:54:22;1.88;;;1.77;;
39750;SDS011;37579;51.074;17.004;2023-08-21T02:56:47;1.65;;;1.55;;
39750;SDS011;37579;51.074;17.004;2023-08-21T02:59:13;1.73;;;1.63;;
39750;SDS011;37579;51.074;17.004;2023-08-21T03:01:39;1.63;;;1.52;;
39750;SDS011;37579;51.074;17.004;2023-08-21T03:04:05;1.70;;;1.60;;
39750;SDS011;37579;51.074;17.004;2023-08-21T03:06:31;1.90;;;1.80;;
39750;SDS011;37579;51.074;17.004;2023-08-21T03:08:56;1.67;;;1.58;;
39750;SDS011;37579;51.074;17.004;2023-08-21T03:11:23;1.88;;;1.77;;
39750;SDS011;37579;51.074;17.004;2023-08-21T03:13:49;1.80;;;1.70;;
39750;SDS011;37579;51.074;17.004;2023-08-21T03:16:15;1.50;;;1.40;;
39750;SDS011;37579;51.074;17.004;2023-08-21T03:18:57;1.65;;;1.55;;
39750;SDS011;37579;51.074;17.004;2023-08-21T03:21:26;1.55;;;1.45;;
39750;SDS011;37579;51.074;17.004;2023-08-21T03:23:54;1.50;;;1.38;;
39750;SDS011;37579;51.074;17.004;2023-08-21T03:26:21;1.52;;;1.42;;
39750;SDS011;37579;51.074;17.004;2023-08-21T03:28:48;2.20;;;2.00;;
39750;SDS011;37579;51.074;17.004;2023-08-21T03:31:14;1.80;;;1.70;;
39750;SDS011;37579;51.074;17.004;2023-08-21T03:33:41;1.83;;;1.73;;
39750;SDS011;37579;51.074;17.004;2023-08-21T03:36:06;1.60;;;1.50;;
39750;SDS011;37579;51.074;17.004;2023-08-21T03:38:32;1.70;;;1.60;;
39750;SDS011;37579;51.074;17.004;2023-08-21T03:40:59;1.85;;;1.75;;
39750;SDS011;37579;51.074;17.004;2023-08-21T03:43:25;1.67;;;1.58;;
39750;SDS011;37579;51.074;17.004;2023-08-21T03:45:51;1.50;;;1.40;;
39750;SDS011;37579;51.074;17.004;2023-08-21T03:48:17;1.52;;;1.42;;
39750;SDS011;37579;51.074;17.004;2023-08-21T03:50:43;1.52;;;1.42;;
39750;SDS011;37579;51.074;17.004;2023-08-21T03:53:09;1.50;;;1.40;;
39750;SDS011;37579;51.074;17.004;2023-08-21T03:55:34;1.80;;;1.70;;
39750;SDS011;37579;51.074;17.004;2023-08-21T03:58:00;1.58;;;1.48;;
39750;SDS011;37579;51.074;17.004;2023-08-21T04:00:26;1.70;;;1.60;;
39750;SDS011;37579;51.074;17.004;2023-08-21T04:02:52;1.50;;;1.40;;
39750;SDS011;37579;51.074;17.004;2023-08-21T04:05:18;1.70;;;1.60;;
39750;SDS011;37579;51.074;17.004;2023-08-21T04:07:44;2.25;;;2.05;;
39750;SDS011;37579;51.074;17.004;2023-08-21T04:10:10;1.60;;;1.50;;
39750;SDS011;37579;51.074;17.004;2023-08-21T04:12:36;1.70;;;1.60;;
39750;SDS011;37579;51.074;17.004;2023-08-21T04:15:01;1.73;;;1.63;;
39750;SDS011;37579;51.074;17.004;2023-08-21T04:17:27;1.80;;;1.70;;
39750;SDS011;37579;51.074;17.004;2023-08-21T04:19:53;1.90;;;1.80;;
39750;SDS011;37579;51.074;17.004;2023-08-21T04:22:20;1.58;;;1.48;;
39750;SDS011;37579;51.074;17.004;2023-08-21T04:24:45;1.77;;;1.67;;
39750;SDS011;37579;51.074;17.004;2023-08-21T04:27:11;1.67;;;1.58;;
39750;SDS011;37579;51.074;17.004;2023-08-21T04:29:38;1.67;;;1.58;;
39750;SDS011;37579;51.074;17.004;2023-08-21T04:32:17;1.50;;;1.40;;
39750;SDS011;37579;51.074;17.004;2023-08-21T04:34:43;1.90;;;1.80;;
39750;SDS011;37579;51.074;17.004;2023-08-21T04:37:09;1.70;;;1.60;;
39750;SDS011;37579;51.074;17.004;2023-08-21T04:39:35;1.60;;;1.50;;
39750;SDS011;37579;51.074;17.004;2023-08-21T04:42:02;1.83;;;1.73;;
39750;SDS011;37579;51.074;17.004;2023-08-21T04:44:27;1.55;;;1.45;;
39750;SDS011;37579;51.074;17.004;2023-08-21T04:46:56;1.60;;;1.50;;
39750;SDS011;37579;51.074;17.004;2023-08-21T04:49:21;1.85;;;1.75;;
39750;SDS011;37579;51.074;17.004;2023-08-21T04:51:48;1.52;;;1.42;;
39750;SDS011;37579;51.074;17.004;2023-08-21T04:54:14;1.65;;;1.55;;
39750;SDS011;37579;51.074;17.004;2023-08-21T04:56:40;1.60;;;1.50;;
39750;SDS011;37579;51.074;17.004;2023-08-21T04:59:08;1.77;;;1.67;;
39750;SDS011;37579;51.074;17.004;2023-08-21T05:01:34;1.95;;;1.85;;
39750;SDS011;37579;51.074;17.004;2023-08-21T05:04:01;1.40;;;1.30;;
39750;SDS011;37579;51.074;17.004;2023-08-21T05:06:26;1.85;;;1.75;;
39750;SDS011;37579;51.074;17.004;2023-08-21T05:08:52;1.50;;;1.40;;
39750;SDS011;37579;51.074;17.004;2023-08-21T05:11:18;1.73;;;1.63;;
39750;SDS011;37579;51.074;17.004;2023-08-21T05:13:45;1.70;;;1.60;;
39750;SDS011;37579;51.074;17.004;2023-08-21T05:16:12;1.70;;;1.60;;
39750;SDS011;37579;51.074;17.004;2023-08-21T05:18:39;1.50;;;1.40;;
39750;SDS011;37579;51.074;17.004;2023-08-21T05:21:05;1.77;;;1.67;;
39750;SDS011;37579;51.074;17.004;2023-08-21T05:23:31;1.90;;;1.80;;
39750;SDS011;37579;51.074;17.004;2023-08-21T05:26:03;1.75;;;1.65;;
39750;SDS011;37579;51.074;17.004;2023-08-21T05:28:29;1.80;;;1.70;;
39750;SDS011;37579;51.074;17.004;2023-08-21T05:30:56;1.65;;;1.55;;
39750;SDS011;37579;51.074;17.004;2023-08-21T05:33:22;1.40;;;1.30;;
39750;SDS011;37579;51.074;17.004;2023-08-21T05:35:49;1.90;;;1.80;;
39750;SDS011;37579;51.074;17.004;2023-08-21T05:38:15;1.67;;;1.58;;
39750;SDS011;37579;51.074;17.004;2023-08-21T05:40:41;1.63;;;1.50;;
39750;SDS011;37579;51.074;17.004;2023-08-21T05:43:08;1.65;;;1.55;;
39750;SDS011;37579;51.074;17.004;2023-08-21T05:45:35;1.85;;;1.75;;
39750;SDS011;37579;51.074;17.004;2023-08-21T05:48:01;1.60;;;1.50;;
39750;SDS011;37579;51.074;17.004;2023-08-21T05:50:27;1.70;;;1.60;;
39750;SDS011;37579;51.074;17.004;2023-08-21T05:52:54;1.92;;;1.83;;
39750;SDS011;37579;51.074;17.004;2023-08-21T05:55:20;1.48;;;1.38;;
39750;SDS011;37579;51.074;17.004;2023-08-21T05:57:46;1.60;;;1.50;;
39750;SDS011;37579;51.074;17.004;2023-08-21T06:00:12;1.60;;;1.50;;
39750;SDS011;37579;51.074;17.004;2023-08-21T06:02:41;1.70;;;1.60;;
39750;SDS011;37579;51.074;17.004;2023-08-21T06:05:12;1.50;;;1.40;;
39750;SDS011;37579;51.074;17.004;2023-08-21T06:07:38;1.70;;;1.60;;
39750;SDS011;37579;51.074;17.004;2023-08-21T06:10:09;1.50;;;1.40;;
39750;SDS011;37579;51.074;17.004;2023-08-21T06:12:40;1.50;;;1.40;;
39750;SDS011;37579;51.074;17.004;2023-08-21T06:15:07;1.70;;;1.60;;
39750;SDS011;37579;51.074;17.004;2023-08-21T06:17:38;1.50;;;1.40;;
39750;SDS011;37579;51.074;17.004;2023-08-21T06:20:05;1.50;;;1.40;;
39750;SDS011;37579;51.074;17.004;2023-08-21T06:22:33;1.70;;;1.60;;
39750;SDS011;37579;51.074;17.004;2023-08-21T06:25:00;1.70;;;1.60;;
39750;SDS011;37579;51.074;17.004;2023-08-21T06:27:26;1.45;;;1.35;;
39750;SDS011;37579;51.074;17.004;2023-08-21T06:29:52;1.63;;;1.52;;
39750;SDS011;37579;51.074;17.004;2023-08-21T06:32:18;1.58;;;1.48;;
39750;SDS011;37579;51.074;17.004;2023-08-21T06:34:44;1.60;;;1.50;;
39750;SDS011;37579;51.074;17.004;2023-08-21T06:37:09;1.52;;;1.42;;
39750;SDS011;37579;51.074;17.004;2023-08-21T06:39:35;1.65;;;1.55;;
39750;SDS011;37579;51.074;17.004;2023-08-21T06:42:01;1.60;;;1.50;;
39750;SDS011;37579;51.074;17.004;2023-08-21T06:44:35;1.70;;;1.60;;
39750;SDS011;37579;51.074;17.004;2023-08-21T06:47:01;1.63;;;1.52;;
39750;SDS011;37579;51.074;17.004;2023-08-21T06:49:27;1.83;;;1.73;;
39750;SDS011;37579;51.074;17.004;2023-08-21T06:51:53;1.50;;;1.40;;
39750;SDS011;37579;51.074;17.004;2023-08-21T06:54:18;1.60;;;1.50;;
39750;SDS011;37579;51.074;17.004;2023-08-21T06:56:44;1.50;;;1.40;;
39750;SDS011;37579;51.074;17.004;2023-08-21T06:59:10;1.50;;;1.40;;
39750;SDS011;37579;51.074;17.004;2023-08-21T07:01:36;1.42;;;1.33;;
39750;SDS011;37579;51.074;17.004;2023-08-21T07:04:01;1.45;;;1.35;;
39750;SDS011;37579;51.074;17.004;2023-08-21T07:06:27;1.80;;;1.70;;
39750;SDS011;37579;51.074;17.004;2023-08-21T07:08:54;1.65;;;1.55;;
39750;SDS011;37579;51.074;17.004;2023-08-21T07:11:20;1.65;;;1.55;;
39750;SDS011;37579;51.074;17.004;2023-08-21T07:13:46;1.50;;;1.40;;
39750;SDS011;37579;51.074;17.004;2023-08-21T07:16:12;1.50;;;1.40;;
39750;SDS011;37579;51.074;17.004;2023-08-21T07:18:38;1.55;;;1.45;;
39750;SDS011;37579;51.074;17.004;2023-08-21T07:21:03;1.50;;;1.40;;
39750;SDS011;37579;51.074;17.004;2023-08-21T07:23:32;1.48;;;1.38;;
39750;SDS011;37579;51.074;17.004;2023-08-21T07:25:59;1.90;;;1.80;;
39750;SDS011;37579;51.074;17.004;2023-08-21T07:28:26;1.73;;;1.63;;
39750;SDS011;37579;51.074;17.004;2023-08-21T07:30:55;1.42;;;1.33;;
39750;SDS011;37579;51.074;17.004;2023-08-21T07:33:22;1.45;;;1.35;;
39750;SDS011;37579;51.074;17.004;2023-08-21T07:35:56;1.58;;;1.48;;
39750;SDS011;37579;51.074;17.004;2023-08-21T07:38:29;1.83;;;1.70;;
39750;SDS011;37579;51.074;17.004;2023-08-21T07:41:01;1.70;;;1.60;;
39750;SDS011;37579;51.074;17.004;2023-08-21T07:43:32;1.60;;;1.50;;
39750;SDS011;37579;51.074;17.004;2023-08-21T07:46:02;1.77;;;1.67;;
39750;SDS011;37579;51.074;17.004;2023-08-21T07:48:32;1.73;;;1.63;;
39750;SDS011;37579;51.074;17.004;2023-08-21T07:50:58;1.60;;;1.50;;
39750;SDS011;37579;51.074;17.004;2023-08-21T07:53:25;1.48;;;1.38;;
39750;SDS011;37579;51.074;17.004;2023-08-21T07:55:51;1.70;;;1.60;;
39750;SDS011;37579;51.074;17.004;2023-08-21T07:58:17;1.48;;;1.38;;
39750;SDS011;37579;51.074;17.004;2023-08-21T08:00:43;1.60;;;1.50;;
39750;SDS011;37579;51.074;17.004;2023-08-21T08:03:09;1.60;;;1.50;;
39750;SDS011;37579;51.074;17.004;2023-08-21T08:05:36;1.80;;;1.70;;
39750;SDS011;37579;51.074;17.004;2023-08-21T08:08:02;1.33;;;1.23;;
39750;SDS011;37579;51.074;17.004;2023-08-21T08:10:28;1.60;;;1.50;;
39750;SDS011;37579;51.074;17.004;2023-08-21T08:12:54;1.65;;;1.55;;
39750;SDS011;37579;51.074;17.004;2023-08-21T08:15:20;1.35;;;1.25;;
39750;SDS011;37579;51.074;17.004;2023-08-21T08:17:48;1.42;;;1.33;;
39750;SDS011;37579;51.074;17.004;2023-08-21T08:20:18;1.80;;;1.70;;
39750;SDS011;37579;51.074;17.004;2023-08-21T08:22:44;1.45;;;1.35;;
39750;SDS011;37579;51.074;17.004;2023-08-21T08:25:10;1.50;;;1.40;;
39750;SDS011;37579;51.074;17.004;2023-08-21T08:27:36;1.70;;;1.60;;
39750;SDS011;37579;51.074;17.004;2023-08-21T08:30:02;1.50;;;1.40;;
39750;SDS011;37579;51.074;17.004;2023-08-21T08:32:29;1.45;;;1.35;;
39750;SDS011;37579;51.074;17.004;2023-08-21T08:34:55;1.65;;;1.55;;
39750;SDS011;37579;51.074;17.004;2023-08-21T08:37:20;1.50;;;1.40;;
39750;SDS011;37579;51.074;17.004;2023-08-21T08:39:46;1.60;;;1.50;;
39750;SDS011;37579;51.074;17.004;2023-08-21T08:42:12;1.30;;;1.20;;
39750;SDS011;37579;51.074;17.004;2023-08-21T08:44:40;1.50;;;1.40;;
39750;SDS011;37579;51.074;17.004;2023-08-21T08:47:07;1.58;;;1.48;;
39750;SDS011;37579;51.074;17.004;2023-08-21T08:49:34;1.60;;;1.50;;
39750;SDS011;37579;51.074;17.004;2023-08-21T08:52:00;1.70;;;1.60;;
39750;SDS011;37579;51.074;17.004;2023-08-21T08:54:27;1.50;;;1.40;;
39750;SDS011;37579;51.074;17.004;2023-08-21T08:56:54;1.60;;;1.50;;
39750;SDS011;37579;51.074;17.004;2023-08-21T08:59:20;1.40;;;1.30;;
39750;SDS011;37579;51.074;17.004;2023-08-21T09:01:46;1.60;;;1.50;;
39750;SDS011;37579;51.074;17.004;2023-08-21T09:04:12;1.60;;;1.50;;
39750;SDS011;37579;51.074;17.004;2023-08-21T09:06:38;1.30;;;1.20;;
39750;SDS011;37579;51.074;17.004;2023-08-21T09:09:04;1.50;;;1.40;;
39750;SDS011;37579;51.074;17.004;2023-08-21T09:11:30;1.63;;;1.52;;
39750;SDS011;37579;51.074;17.004;2023-08-21T09:13:58;1.33;;;1.23;;
39750;SDS011;37579;51.074;17.004;2023-08-21T09:16:24;1.40;;;1.30;;
39750;SDS011;37579;51.074;17.004;2023-08-21T09:19:00;1.60;;;1.50;;
39750;SDS011;37579;51.074;17.004;2023-08-21T09:21:26;1.42;;;1.33;;
39750;SDS011;37579;51.074;17.004;2023-08-21T09:23:57;1.48;;;1.38;;
39750;SDS011;37579;51.074;17.004;2023-08-21T09:26:24;1.38;;;1.27;;
39750;SDS011;37579;51.074;17.004;2023-08-21T09:28:51;1.40;;;1.30;;
39750;SDS011;37579;51.074;17.004;2023-08-21T09:31:29;1.60;;;1.50;;
39750;SDS011;37579;51.074;17.004;2023-08-21T09:33:56;1.23;;;1.15;;
39750;SDS011;37579;51.074;17.004;2023-08-21T09:36:22;1.30;;;1.20;;
39750;SDS011;37579;51.074;17.004;2023-08-21T09:38:50;1.58;;;1.48;;
39750;SDS011;37579;51.074;17.004;2023-08-21T09:41:20;1.27;;;1.17;;
39750;SDS011;37579;51.074;17.004;2023-08-21T09:43:47;1.50;;;1.40;;
39750;SDS011;37579;51.074;17.004;2023-08-21T09:46:15;1.35;;;1.25;;
39750;SDS011;37579;51.074;17.004;2023-08-21T09:48:43;1.40;;;1.30;;
39750;SDS011;37579;51.074;17.004;2023-08-21T09:51:13;1.27;;;1.17;;
39750;SDS011;37579;51.074;17.004;2023-08-21T09:53:38;1.30;;;1.20;;
39750;SDS011;37579;51.074;17.004;2023-08-21T09:56:05;1.35;;;1.25;;
39750;SDS011;37579;51.074;17.004;2023-08-21T09:58:34;1.73;;;1.63;;
39750;SDS011;37579;51.074;17.004;2023-08-21T10:01:01;1.35;;;1.25;;
39750;SDS011;37579;51.074;17.004;2023-08-21T10:03:39;1.48;;;1.38;;
39750;SDS011;37579;51.074;17.004;2023-08-21T10:06:08;1.10;;;1.10;;
39750;SDS011;37579;51.074;17.004;2023-08-21T10:08:37;1.50;;;1.40;;
39750;SDS011;37579;51.074;17.004;2023-08-21T10:11:07;2.53;;;1.40;;
39750;SDS011;37579;51.074;17.004;2023-08-21T10:13:34;1.25;;;1.15;;
39750;SDS011;37579;51.074;17.004;2023-08-21T10:16:03;1.23;;;1.13;;
39750;SDS011;37579;51.074;17.004;2023-08-21T10:21:09;1.40;;;1.30;;
39750;SDS011;37579;51.074;17.004;2023-08-21T10:23:37;1.33;;;1.23;;
39750;SDS011;37579;51.074;17.004;2023-08-21T10:26:05;1.33;;;1.23;;
39750;SDS011;37579;51.074;17.004;2023-08-21T10:31:25;1.33;;;1.23;;
39750;SDS011;37579;51.074;17.004;2023-08-21T10:33:51;1.20;;;1.10;;
39750;SDS011;37579;51.074;17.004;2023-08-21T10:39:15;1.42;;;1.33;;
39750;SDS011;37579;51.074;17.004;2023-08-21T10:42:01;1.25;;;1.15;;
39750;SDS011;37579;51.074;17.004;2023-08-21T10:49:53;1.40;;;1.30;;
39750;SDS011;37579;51.074;17.004;2023-08-21T10:52:24;1.42;;;1.33;;
39750;SDS011;37579;51.074;17.004;2023-08-21T10:54:54;1.45;;;1.35;;
39750;SDS011;37579;51.074;17.004;2023-08-21T10:57:24;1.33;;;1.23;;
39750;SDS011;37579;51.074;17.004;2023-08-21T10:59:52;1.50;;;1.40;;
39750;SDS011;37579;51.074;17.004;2023-08-21T11:02:21;1.50;;;1.40;;
39750;SDS011;37579;51.074;17.004;2023-08-21T11:04:48;1.40;;;1.30;;
39750;SDS011;37579;51.074;17.004;2023-08-21T11:07:15;1.40;;;1.30;;
39750;SDS011;37579;51.074;17.004;2023-08-21T11:09:41;1.13;;;1.02;;
39750;SDS011;37579;51.074;17.004;2023-08-21T11:12:08;1.33;;;1.23;;
39750;SDS011;37579;51.074;17.004;2023-08-21T11:14:35;1.35;;;1.25;;
39750;SDS011;37579;51.074;17.004;2023-08-21T11:17:02;1.40;;;1.30;;
39750;SDS011;37579;51.074;17.004;2023-08-21T11:19:32;1.50;;;1.40;;
39750;SDS011;37579;51.074;17.004;2023-08-21T11:21:59;1.08;;;1.08;;
39750;SDS011;37579;51.074;17.004;2023-08-21T11:24:30;1.10;;;1.00;;
39750;SDS011;37579;51.074;17.004;2023-08-21T11:27:04;1.30;;;1.20;;
39750;SDS011;37579;51.074;17.004;2023-08-21T11:29:40;1.40;;;1.30;;
39750;SDS011;37579;51.074;17.004;2023-08-21T11:37:18;1.20;;;1.10;;
39750;SDS011;37579;51.074;17.004;2023-08-21T11:42:13;1.40;;;1.30;;
39750;SDS011;37579;51.074;17.004;2023-08-21T11:44:40;1.17;;;1.08;;
39750;SDS011;37579;51.074;17.004;2023-08-21T11:47:13;1.13;;;1.10;;
39750;SDS011;37579;51.074;17.004;2023-08-21T11:49:40;1.40;;;1.30;;
39750;SDS011;37579;51.074;17.004;2023-08-21T11:52:08;1.35;;;1.27;;
39750;SDS011;37579;51.074;17.004;2023-08-21T11:54:35;1.40;;;1.30;;
39750;SDS011;37579;51.074;17.004;2023-08-21T11:57:06;1.48;;;1.38;;
39750;SDS011;37579;51.074;17.004;2023-08-21T11:59:38;1.40;;;1.30;;
39750;SDS011;37579;51.074;17.004;2023-08-21T12:02:12;1.60;;;1.50;;
39750;SDS011;37579;51.074;17.004;2023-08-21T12:04:41;1.10;;;1.00;;
39750;SDS011;37579;51.074;17.004;2023-08-21T12:07:07;1.38;;;1.27;;
39750;SDS011;37579;51.074;17.004;2023-08-21T12:09:33;1.40;;;1.30;;
39750;SDS011;37579;51.074;17.004;2023-08-21T12:11:59;1.00;;;1.00;;
39750;SDS011;37579;51.074;17.004;2023-08-21T12:14:24;1.20;;;1.10;;
39750;SDS011;37579;51.074;17.004;2023-08-21T12:16:50;1.30;;;1.20;;
39750;SDS011;37579;51.074;17.004;2023-08-21T12:19:16;1.20;;;1.10;;
39750;SDS011;37579;51.074;17.004;2023-08-21T12:21:42;1.40;;;1.30;;
39750;SDS011;37579;51.074;17.004;2023-08-21T12:24:08;1.15;;;1.15;;
39750;SDS011;37579;51.074;17.004;2023-08-21T12:26:34;1.15;;;1.05;;
39750;SDS011;37579;51.074;17.004;2023-08-21T12:29:00;1.23;;;1.20;;
39750;SDS011;37579;51.074;17.004;2023-08-21T12:31:27;1.20;;;1.10;;
39750;SDS011;37579;51.074;17.004;2023-08-21T12:33:54;1.40;;;1.30;;
39750;SDS011;37579;51.074;17.004;2023-08-21T12:36:20;1.45;;;1.35;;
39750;SDS011;37579;51.074;17.004;2023-08-21T12:38:45;1.30;;;1.20;;
39750;SDS011;37579;51.074;17.004;2023-08-21T12:41:11;1.27;;;1.17;;
39750;SDS011;37579;51.074;17.004;2023-08-21T12:43:37;1.20;;;1.10;;
39750;SDS011;37579;51.074;17.004;2023-08-21T12:46:03;1.30;;;1.20;;
39750;SDS011;37579;51.074;17.004;2023-08-21T12:48:28;1.35;;;1.25;;
39750;SDS011;37579;51.074;17.004;2023-08-21T12:50:54;1.25;;;1.15;;
39750;SDS011;37579;51.074;17.004;2023-08-21T12:53:20;1.25;;;1.15;;
39750;SDS011;37579;51.074;17.004;2023-08-21T12:55:45;1.30;;;1.20;;
39750;SDS011;37579;51.074;17.004;2023-08-21T12:58:11;1.48;;;1.38;;
39750;SDS011;37579;51.074;17.004;2023-08-21T13:00:39;1.20;;;1.10;;
39750;SDS011;37579;51.074;17.004;2023-08-21T13:03:05;1.02;;;1.02;;
39750;SDS011;37579;51.074;17.004;2023-08-21T13:05:31;1.35;;;1.25;;
39750;SDS011;37579;51.074;17.004;2023-08-21T13:07:57;1.20;;;1.10;;
39750;SDS011;37579;51.074;17.004;2023-08-21T13:10:22;1.45;;;1.35;;
39750;SDS011;37579;51.074;17.004;2023-08-21T13:12:48;1.48;;;1.38;;
39750;SDS011;37579;51.074;17.004;2023-08-21T13:15:15;1.30;;;1.20;;
39750;SDS011;37579;51.074;17.004;2023-08-21T13:17:41;1.30;;;1.20;;
39750;SDS011;37579;51.074;17.004;2023-08-21T13:20:08;1.20;;;1.10;;
39750;SDS011;37579;51.074;17.004;2023-08-21T13:22:48;1.15;;;1.10;;
39750;SDS011;37579;51.074;17.004;2023-08-21T13:25:19;1.02;;;1.02;;
39750;SDS011;37579;51.074;17.004;2023-08-21T13:27:47;1.25;;;1.17;;
39750;SDS011;37579;51.074;17.004;2023-08-21T13:30:13;1.38;;;1.27;;
39750;SDS011;37579;51.074;17.004;2023-08-21T13:32:40;1.30;;;1.20;;
39750;SDS011;37579;51.074;17.004;2023-08-21T13:35:06;1.30;;;1.20;;
39750;SDS011;37579;51.074;17.004;2023-08-21T13:37:33;1.30;;;1.20;;
39750;SDS011;37579;51.074;17.004;2023-08-21T13:40:00;1.20;;;1.10;;
39750;SDS011;37579;51.074;17.004;2023-08-21T13:42:34;1.20;;;1.10;;
39750;SDS011;37579;51.074;17.004;2023-08-21T13:45:02;1.40;;;1.30;;
39750;SDS011;37579;51.074;17.004;2023-08-21T13:47:28;0.90;;;0.90;;
39750;SDS011;37579;51.074;17.004;2023-08-21T13:49:54;1.20;;;1.10;;
39750;SDS011;37579;51.074;17.004;2023-08-21T13:52:20;1.20;;;1.10;;
39750;SDS011;37579;51.074;17.004;2023-08-21T13:54:46;1.13;;;1.02;;
39750;SDS011;37579;51.074;17.004;2023-08-21T13:57:12;1.00;;;0.98;;
39750;SDS011;37579;51.074;17.004;2023-08-21T13:59:38;1.20;;;1.10;;
39750;SDS011;37579;51.074;17.004;2023-08-21T14:02:04;1.10;;;1.00;;
39750;SDS011;37579;51.074;17.004;2023-08-21T14:04:31;1.20;;;1.10;;
39750;SDS011;37579;51.074;17.004;2023-08-21T14:06:57;1.13;;;1.02;;
39750;SDS011;37579;51.074;17.004;2023-08-21T14:09:23;0.98;;;0.88;;
39750;SDS011;37579;51.074;17.004;2023-08-21T14:11:49;1.00;;;1.00;;
39750;SDS011;37579;51.074;17.004;2023-08-21T14:14:15;1.10;;;1.00;;
39750;SDS011;37579;51.074;17.004;2023-08-21T14:16:40;1.30;;;1.20;;
39750;SDS011;37579;51.074;17.004;2023-08-21T14:19:06;1.20;;;1.10;;
39750;SDS011;37579;51.074;17.004;2023-08-21T14:21:32;1.13;;;1.08;;
39750;SDS011;37579;51.074;17.004;2023-08-21T14:23:58;1.23;;;1.13;;
39750;SDS011;37579;51.074;17.004;2023-08-21T14:26:23;1.33;;;1.23;;
39750;SDS011;37579;51.074;17.004;2023-08-21T14:28:49;1.00;;;1.00;;
39750;SDS011;37579;51.074;17.004;2023-08-21T14:31:16;1.10;;;1.00;;
39750;SDS011;37579;51.074;17.004;2023-08-21T14:33:42;1.13;;;1.10;;
39750;SDS011;37579;51.074;17.004;2023-08-21T14:36:08;1.10;;;1.00;;
39750;SDS011;37579;51.074;17.004;2023-08-21T14:38:34;1.10;;;1.10;;
39750;SDS011;37579;51.074;17.004;2023-08-21T14:41:00;1.33;;;1.23;;
39750;SDS011;37579;51.074;17.004;2023-08-21T14:43:26;0.93;;;0.93;;
39750;SDS011;37579;51.074;17.004;2023-08-21T14:45:53;1.05;;;1.00;;
39750;SDS011;37579;51.074;17.004;2023-08-21T14:48:19;1.13;;;1.02;;
39750;SDS011;37579;51.074;17.004;2023-08-21T14:50:45;1.05;;;0.95;;
39750;SDS011;37579;51.074;17.004;2023-08-21T14:53:10;1.13;;;1.02;;
39750;SDS011;37579;51.074;17.004;2023-08-21T14:55:36;1.10;;;1.00;;